Time;durP1;ratioP1;P1;durP2;ratioP2;P2;SDS_P1;SDS_P2;PMS_P1;PMS_P2;Temp;Humidity;BMP_temperature;BMP_pressure;BME280_temperature;BME280_humidity;BME280_pressure;Samples;Min_cycle;Max_cycle;Signal;HPM_P1;HPM_P2
2021/07/30 00:01:42;;;;;;;8.07;6.10;;;;;;;;;;5074700;28;20187;-73
2021/07/30 00:04:47;;;;;;;6.83;6.00;;;;;;;;;;5075060;28;20179;-74
2021/07/30 00:07:51;;;;;;;8.97;6.40;;;;;;;;;;5074373;28;20176;-74
2021/07/30 00:10:57;;;;;;;9.93;6.47;;;;;;;;;;5074447;28;20207;-74
2021/07/30 00:14:01;;;;;;;9.23;7.27;;;;;;;;;;5074423;28;20183;-74
2021/07/30 00:17:05;;;;;;;8.83;6.30;;;;;;;;;;5074709;28;20167;-74
2021/07/30 00:20:09;;;;;;;9.53;6.70;;;;;;;;;;5074419;28;20176;-74
2021/07/30 00:23:12;;;;;;;9.60;6.90;;;;;;;;;;5061941;28;20677;-74
2021/07/30 00:26:17;;;;;;;7.47;6.30;;;;;;;;;;5061851;28;20219;-74
2021/07/30 00:29:20;;;;;;;7.87;5.87;;;;;;;;;;5061669;28;20693;-74
2021/07/30 00:32:25;;;;;;;8.40;5.97;;;;;;;;;;5062219;28;20685;-74
2021/07/30 00:35:28;;;;;;;7.60;6.53;;;;;;;;;;5061827;28;20183;-74
2021/07/30 00:38:37;;;;;;;8.30;6.83;;;;;;;;;;5073798;28;20172;-74
2021/07/30 00:41:41;;;;;;;9.53;6.53;;;;;;;;;;5073506;28;20183;-74
2021/07/30 00:44:45;;;;;;;10.03;7.00;;;;;;;;;;5050412;28;20180;-74
2021/07/30 00:47:50;;;;;;;10.33;6.97;;;;;;;;;;5061436;28;20207;-74
2021/07/30 00:50:54;;;;;;;10.10;7.10;;;;;;;;;;5061887;28;20626;-74
2021/07/30 00:53:59;;;;;;;11.33;7.93;;;;;;;;;;5073958;28;20184;-74
2021/07/30 00:57:06;;;;;;;10.87;6.67;;;;;;;;;;5061694;28;20180;-74
2021/07/30 01:00:13;;;;;;;10.33;7.23;;;;;;;;;;5061575;28;20192;-74
2021/07/30 01:03:18;;;;;;;8.23;6.70;;;;;;;;;;5073444;28;20211;-73
2021/07/30 01:06:22;;;;;;;11.17;7.43;;;;;;;;;;5073587;28;20214;-74
2021/07/30 01:09:26;;;;;;;9.67;7.33;;;;;;;;;;5073468;28;20203;-74
2021/07/30 01:12:30;;;;;;;12.33;7.53;;;;;;;;;;5073282;28;20701;-74
2021/07/30 01:15:34;;;;;;;9.00;7.90;;;;;;;;;;5073676;28;20183;-74
2021/07/30 01:18:38;;;;;;;8.70;7.57;;;;;;;;;;5061310;28;20172;-74
2021/07/30 01:21:46;;;;;;;9.07;7.47;;;;;;;;;;5073208;28;20195;-74
2021/07/30 01:24:51;;;;;;;10.97;7.77;;;;;;;;;;5050061;28;20531;-73
2021/07/30 01:27:56;;;;;;;11.37;7.80;;;;;;;;;;5073524;28;20203;-74
2021/07/30 01:31:01;;;;;;;8.53;7.43;;;;;;;;;;5073462;28;20545;-74
2021/07/30 01:34:08;;;;;;;13.33;8.30;;;;;;;;;;5061729;28;20191;-73
2021/07/30 01:37:12;;;;;;;13.00;6.83;;;;;;;;;;5073346;28;20191;-74
2021/07/30 01:40:21;;;;;;;9.03;6.77;;;;;;;;;;5073693;28;20622;-74
2021/07/30 01:43:25;;;;;;;8.10;6.57;;;;;;;;;;5073071;28;20227;-74
2021/07/30 01:46:29;;;;;;;8.20;7.27;;;;;;;;;;5073510;28;20535;-74
2021/07/30 01:49:33;;;;;;;8.00;6.57;;;;;;;;;;5061001;28;20187;-74
2021/07/30 01:52:37;;;;;;;8.47;6.63;;;;;;;;;;5072974;28;20215;-73
2021/07/30 01:55:41;;;;;;;11.60;7.13;;;;;;;;;;5076915;28;20199;-74
2021/07/30 01:58:45;;;;;;;10.97;7.40;;;;;;;;;;5077294;28;20191;-74
2021/07/30 02:01:49;;;;;;;8.93;7.00;;;;;;;;;;5076754;28;20215;-74
2021/07/30 02:04:53;;;;;;;9.33;6.57;;;;;;;;;;5053658;28;20175;-74
2021/07/30 02:07:57;;;;;;;8.30;6.93;;;;;;;;;;5064374;28;20207;-74
2021/07/30 02:11:09;;;;;;;9.67;7.60;;;;;;;;;;5076887;28;20215;-74
2021/07/30 02:14:16;;;;;;;8.37;7.07;;;;;;;;;;5076697;28;20184;-74
2021/07/30 02:17:20;;;;;;;9.53;7.00;;;;;;;;;;5064749;28;20511;-74
2021/07/30 02:20:24;;;;;;;10.63;7.80;;;;;;;;;;5076714;28;20511;-74
2021/07/30 02:23:28;;;;;;;9.57;7.30;;;;;;;;;;5052595;28;20219;-74
2021/07/30 02:26:33;;;;;;;9.57;6.80;;;;;;;;;;5076323;28;20195;-74
2021/07/30 02:29:37;;;;;;;7.63;6.63;;;;;;;;;;5076245;28;20188;-74
2021/07/30 02:32:41;;;;;;;10.70;6.90;;;;;;;;;;5076416;28;20219;-74
2021/07/30 02:35:45;;;;;;;8.87;6.60;;;;;;;;;;5064412;28;20179;-74
2021/07/30 02:38:49;;;;;;;9.77;7.03;;;;;;;;;;5076250;28;20172;-74
2021/07/30 02:41:53;;;;;;;9.60;6.73;;;;;;;;;;5076196;28;20211;-74
2021/07/30 02:44:58;;;;;;;9.27;6.97;;;;;;;;;;5076338;28;20207;-73
2021/07/30 02:48:02;;;;;;;8.83;7.37;;;;;;;;;;5063420;28;20195;-73
2021/07/30 02:51:06;;;;;;;10.13;7.20;;;;;;;;;;5075881;28;20188;-74
2021/07/30 02:54:10;;;;;;;9.80;7.10;;;;;;;;;;5064075;28;20184;-73
2021/07/30 02:57:14;;;;;;;10.73;7.03;;;;;;;;;;5076308;28;20171;-74
2021/07/30 03:00:19;;;;;;;9.93;7.13;;;;;;;;;;5076002;28;20175;-74
2021/07/30 03:03:23;;;;;;;8.23;7.03;;;;;;;;;;5063382;28;20215;-74
2021/07/30 03:06:27;;;;;;;11.33;7.33;;;;;;;;;;5075703;28;20630;-74
2021/07/30 03:09:31;;;;;;;10.60;8.00;;;;;;;;;;5075528;28;20187;-74
2021/07/30 03:12:36;;;;;;;9.37;7.40;;;;;;;;;;5075336;28;20226;-74
2021/07/30 03:15:40;;;;;;;9.20;7.80;;;;;;;;;;5076030;28;20183;-73
2021/07/30 03:18:44;;;;;;;8.70;7.37;;;;;;;;;;5075895;28;20179;-74
2021/07/30 03:21:48;;;;;;;13.57;8.50;;;;;;;;;;5062964;28;20219;-74
2021/07/30 03:24:52;;;;;;;13.37;8.13;;;;;;;;;;5075509;28;20199;-74
2021/07/30 03:27:57;;;;;;;13.00;8.40;;;;;;;;;;5062990;28;20203;-74
2021/07/30 03:31:00;;;;;;;9.10;7.70;;;;;;;;;;5075397;28;20187;-74
2021/07/30 03:34:04;;;;;;;10.63;8.40;;;;;;;;;;5063052;28;20187;-74
2021/07/30 03:37:09;;;;;;;10.80;8.90;;;;;;;;;;5062996;28;20179;-74
2021/07/30 03:40:13;;;;;;;10.10;7.93;;;;;;;;;;5062676;28;20175;-74
2021/07/30 03:43:17;;;;;;;13.07;8.60;;;;;;;;;;5051150;28;20222;-74
2021/07/30 03:46:22;;;;;;;10.00;7.70;;;;;;;;;;5075144;28;20195;-74
2021/07/30 03:49:26;;;;;;;10.23;8.10;;;;;;;;;;5062938;28;20172;-73
2021/07/30 03:52:30;;;;;;;9.73;7.87;;;;;;;;;;5050886;28;20227;-74
2021/07/30 03:55:34;;;;;;;9.03;8.10;;;;;;;;;;5051163;28;20198;-74
2021/07/30 03:58:39;;;;;;;12.07;7.27;;;;;;;;;;5062531;28;20180;-73
2021/07/30 04:01:49;;;;;;;9.27;7.33;;;;;;;;;;5074790;28;20188;-74
2021/07/30 04:04:53;;;;;;;9.20;7.17;;;;;;;;;;5074563;28;20661;-74
2021/07/30 04:07:57;;;;;;;15.20;8.43;;;;;;;;;;5074639;28;20665;-73
2021/07/30 04:11:03;;;;;;;11.17;7.70;;;;;;;;;;5057871;22;20234;-73
2021/07/30 04:14:07;;;;;;;10.30;7.90;;;;;;;;;;5075151;28;20171;-72
2021/07/30 04:17:11;;;;;;;9.43;7.60;;;;;;;;;;5073685;28;20192;-73
2021/07/30 04:20:16;;;;;;;12.20;7.90;;;;;;;;;;5062385;28;20530;-73
2021/07/30 04:23:20;;;;;;;9.97;8.37;;;;;;;;;;5061661;28;20219;-73
2021/07/30 04:26:23;;;;;;;9.67;7.80;;;;;;;;;;5074279;28;20618;-73
2021/07/30 04:29:28;;;;;;;9.87;7.23;;;;;;;;;;5073897;28;20191;-73
2021/07/30 04:32:32;;;;;;;9.73;7.53;;;;;;;;;;5074095;28;20223;-72
2021/07/30 04:35:36;;;;;;;8.63;7.20;;;;;;;;;;5074436;28;20515;-73
2021/07/30 04:38:44;;;;;;;12.23;7.30;;;;;;;;;;5074181;28;20180;-73
2021/07/30 04:41:49;;;;;;;8.73;7.73;;;;;;;;;;5074201;28;20219;-73
2021/07/30 04:44:53;;;;;;;9.27;6.50;;;;;;;;;;5073759;28;20179;-73
2021/07/30 04:47:57;;;;;;;9.07;7.40;;;;;;;;;;5061555;28;20203;-73
2021/07/30 04:51:01;;;;;;;8.43;7.00;;;;;;;;;;5073622;28;20176;-73
2021/07/30 04:54:05;;;;;;;9.10;7.30;;;;;;;;;;5073655;28;20179;-73
2021/07/30 04:57:09;;;;;;;9.30;6.47;;;;;;;;;;5074115;28;20179;-73
2021/07/30 05:00:14;;;;;;;9.37;6.87;;;;;;;;;;5073798;28;20175;-73
2021/07/30 05:03:18;;;;;;;15.27;6.77;;;;;;;;;;5061122;28;20227;-73
2021/07/30 05:06:22;;;;;;;11.57;7.20;;;;;;;;;;5061378;28;20175;-73
2021/07/30 05:09:26;;;;;;;11.27;7.77;;;;;;;;;;5061356;28;20180;-73
2021/07/30 05:12:34;;;;;;;9.37;7.40;;;;;;;;;;5061268;28;20227;-73
2021/07/30 05:15:38;;;;;;;9.73;6.97;;;;;;;;;;5073595;28;20176;-73
2021/07/30 05:18:42;;;;;;;8.20;7.03;;;;;;;;;;5073845;28;20610;-73
2021/07/30 05:21:47;;;;;;;11.53;7.43;;;;;;;;;;5061097;28;20191;-73
2021/07/30 05:24:51;;;;;;;12.10;8.03;;;;;;;;;;5073202;28;20662;-73
2021/07/30 05:27:55;;;;;;;8.27;7.10;;;;;;;;;;5049660;28;20665;-73
2021/07/30 05:31:00;;;;;;;10.03;7.07;;;;;;;;;;5053886;28;20183;-73
2021/07/30 05:34:04;;;;;;;15.00;7.13;;;;;;;;;;5076807;28;20642;-73
2021/07/30 05:37:08;;;;;;;10.10;7.50;;;;;;;;;;5077468;28;20195;-73
2021/07/30 05:40:13;;;;;;;9.67;7.47;;;;;;;;;;5065123;28;20535;-73
2021/07/30 05:43:17;;;;;;;9.77;6.60;;;;;;;;;;5077072;28;20218;-73
2021/07/30 05:46:21;;;;;;;7.93;7.10;;;;;;;;;;5065238;28;20179;-73
2021/07/30 05:49:25;;;;;;;9.87;7.17;;;;;;;;;;5064366;28;20219;-73
2021/07/30 05:52:30;;;;;;;8.80;7.10;;;;;;;;;;5077005;28;20215;-72
2021/07/30 05:55:36;;;;;;;7.83;6.50;;;;;;;;;;5076813;28;20179;-73
2021/07/30 05:58:40;;;;;;;8.70;7.10;;;;;;;;;;5076909;28;20180;-73
2021/07/30 06:01:44;;;;;;;13.07;7.17;;;;;;;;;;5076634;28;20179;-73
2021/07/30 06:04:49;;;;;;;11.97;8.00;;;;;;;;;;5076745;28;20179;-73
2021/07/30 06:07:57;;;;;;;9.53;7.50;;;;;;;;;;5076797;28;20211;-73
2021/07/30 06:11:04;;;;;;;9.53;7.23;;;;;;;;;;5076694;28;20546;-73
2021/07/30 06:14:08;;;;;;;11.50;7.40;;;;;;;;;;5064698;28;20175;-73
2021/07/30 06:17:12;;;;;;;15.00;7.93;;;;;;;;;;5076755;28;20180;-72
2021/07/30 06:20:17;;;;;;;11.13;7.13;;;;;;;;;;5064438;28;20180;-73
2021/07/30 06:23:21;;;;;;;12.27;7.77;;;;;;;;;;5064319;28;20215;-73
2021/07/30 06:26:25;;;;;;;15.03;6.63;;;;;;;;;;5064338;28;20183;-73
2021/07/30 06:29:29;;;;;;;5.80;4.83;;;;;;;;;;5063979;28;20215;-73
2021/07/30 06:32:42;;;;;;;7.07;3.93;;;;;;;;;;5076687;28;20215;-73
2021/07/30 06:35:49;;;;;;;4.70;4.20;;;;;;;;;;5064280;28;20195;-73
2021/07/30 06:38:53;;;;;;;6.43;3.40;;;;;;;;;;5076238;28;20180;-73
2021/07/30 06:41:57;;;;;;;5.43;3.70;;;;;;;;;;5063705;28;20223;-72
2021/07/30 06:45:03;;;;;;;5.03;3.50;;;;;;;;;;5076256;28;20203;-73
2021/07/30 06:48:08;;;;;;;6.13;3.57;;;;;;;;;;5063676;28;20211;-73
2021/07/30 06:51:12;;;;;;;6.03;3.87;;;;;;;;;;5076378;28;20176;-72
2021/07/30 06:54:17;;;;;;;10.90;3.93;;;;;;;;;;5075814;28;20175;-72
2021/07/30 06:57:21;;;;;;;4.53;2.90;;;;;;;;;;5075720;28;20199;-73
2021/07/30 07:00:25;;;;;;;3.83;3.27;;;;;;;;;;5075908;28;20192;-73
2021/07/30 07:03:30;;;;;;;7.13;4.27;;;;;;;;;;5075833;28;20218;-73
2021/07/30 07:06:33;;;;;;;5.63;3.40;;;;;;;;;;5075823;28;20179;-73
2021/07/30 07:09:38;;;;;;;4.43;3.23;;;;;;;;;;5075571;28;20203;-72
2021/07/30 07:12:42;;;;;;;4.67;3.27;;;;;;;;;;5075469;28;20231;-73
2021/07/30 07:15:47;;;;;;;4.90;2.90;;;;;;;;;;5063961;28;20184;-73
2021/07/30 07:18:51;;;;;;;5.73;2.87;;;;;;;;;;5075908;28;20504;-73
2021/07/30 07:21:55;;;;;;;8.90;3.00;;;;;;;;;;5075214;28;20223;-73
2021/07/30 07:24:59;;;;;;;3.73;3.00;;;;;;;;;;5075475;28;20297;-73
2021/07/30 07:28:03;;;;;;;5.23;3.20;;;;;;;;;;5075619;28;20207;-73
2021/07/30 07:31:07;;;;;;;5.40;3.57;;;;;;;;;;5062795;28;20179;-73
2021/07/30 07:34:12;;;;;;;6.27;3.00;;;;;;;;;;5075603;28;20175;-73
2021/07/30 07:37:16;;;;;;;6.83;3.37;;;;;;;;;;5062802;28;20180;-73
2021/07/30 07:40:20;;;;;;;6.10;2.87;;;;;;;;;;5074927;28;20179;-73
2021/07/30 07:43:24;;;;;;;8.63;3.43;;;;;;;;;;5075039;28;20218;-73
2021/07/30 07:46:28;;;;;;;4.47;3.40;;;;;;;;;;5075339;28;20515;-73
2021/07/30 07:49:32;;;;;;;5.33;3.53;;;;;;;;;;5075036;28;20211;-73
2021/07/30 07:52:36;;;;;;;4.97;3.37;;;;;;;;;;5061756;28;20685;-73
2021/07/30 07:55:41;;;;;;;7.00;3.20;;;;;;;;;;5074665;28;20180;-73
2021/07/30 07:58:45;;;;;;;4.43;3.50;;;;;;;;;;5062319;28;20169;-73
2021/07/30 08:01:49;;;;;;;6.37;3.33;;;;;;;;;;5074760;28;20711;-73
2021/07/30 08:04:53;;;;;;;6.53;3.60;;;;;;;;;;5074730;28;20183;-73
2021/07/30 08:07:58;;;;;;;5.47;3.13;;;;;;;;;;5074354;28;20172;-73
2021/07/30 08:11:03;;;;;;;4.77;3.20;;;;;;;;;;5074449;28;20199;-73
2021/07/30 08:14:07;;;;;;;6.03;3.00;;;;;;;;;;5062151;28;20173;-73
2021/07/30 08:17:11;;;;;;;3.85;2.80;;;;;;;;;;5074468;28;20178;-73
2021/07/30 08:20:15;;;;;;;5.22;2.67;;;;;;;;;;5074712;28;20185;-73
2021/07/30 08:23:20;;;;;;;6.50;3.30;;;;;;;;;;5073970;28;20215;-73
2021/07/30 08:26:24;;;;;;;7.75;3.08;;;;;;;;;;5074011;28;20528;-73
2021/07/30 08:29:28;;;;;;;5.80;3.50;;;;;;;;;;5061618;28;20224;-73
2021/07/30 08:32:33;;;;;;;4.43;3.25;;;;;;;;;;5074197;28;20214;-73
2021/07/30 08:35:39;;;;;;;4.35;3.10;;;;;;;;;;5074221;28;20173;-73
2021/07/30 08:38:43;;;;;;;5.75;3.30;;;;;;;;;;5062125;28;20179;-73
2021/07/30 08:41:49;;;;;;;6.88;3.60;;;;;;;;;;5074274;28;20186;-73
2021/07/30 08:44:55;;;;;;;8.60;3.58;;;;;;;;;;5073722;28;20282;-73
2021/07/30 08:48:00;;;;;;;4.18;3.53;;;;;;;;;;5061434;28;20182;-73
2021/07/30 08:51:09;;;;;;;6.03;3.53;;;;;;;;;;5073922;28;20172;-73
2021/07/30 08:54:14;;;;;;;5.45;3.78;;;;;;;;;;5073618;28;20192;-73
2021/07/30 08:57:18;;;;;;;4.15;3.65;;;;;;;;;;5073584;28;20639;-73
2021/07/30 09:00:23;;;;;;;4.63;3.72;;;;;;;;;;5073505;28;20176;-73
2021/07/30 09:03:44;;;;;;;4.35;3.88;;;;;;;;;;5073276;28;20215;-73
2021/07/30 09:06:53;;;;;;;3.88;3.40;;;;;;;;;;5061087;28;20180;-73
2021/07/30 09:09:57;;;;;;;8.93;4.00;;;;;;;;;;5073076;28;20216;-73
2021/07/30 09:13:27;;;;;;;4.82;3.65;;;;;;;;;;5073497;28;20553;-73
2021/07/30 09:16:46;;;;;;;5.15;4.20;;;;;;;;;;5073586;28;20184;-74
2021/07/30 09:20:01;;;;;;;4.68;3.83;;;;;;;;;;5061481;28;20513;-74
2021/07/30 09:23:05;;;;;;;4.50;4.10;;;;;;;;;;5073392;28;20216;-73
2021/07/30 09:26:09;;;;;;;3.97;3.60;;;;;;;;;;5073430;28;20618;-73
2021/07/30 09:29:18;;;;;;;5.38;4.15;;;;;;;;;;5073397;28;20204;-74
2021/07/30 09:32:30;;;;;;;4.10;3.70;;;;;;;;;;5073090;28;20693;-73
2021/07/30 09:35:56;;;;;;;5.72;3.72;;;;;;;;;;5073700;28;20603;-74
2021/07/30 09:39:00;;;;;;;6.25;3.75;;;;;;;;;;5073687;28;20179;-74
2021/07/30 09:42:08;;;;;;;8.38;4.32;;;;;;;;;;5073021;28;20211;-72
2021/07/30 09:45:15;;;;;;;6.82;3.53;;;;;;;;;;5073058;28;20180;-74
2021/07/30 09:48:45;;;;;;;4.95;4.10;;;;;;;;;;5073286;28;20199;-74
2021/07/30 09:51:49;;;;;;;5.85;3.78;;;;;;;;;;5072953;28;20227;-74
2021/07/30 09:54:56;;;;;;;5.60;4.13;;;;;;;;;;5073324;28;20180;-73
2021/07/30 09:58:01;;;;;;;4.43;4.03;;;;;;;;;;5073508;28;20184;-73
2021/07/30 10:01:06;;;;;;;5.80;4.30;;;;;;;;;;5073146;28;20618;-74
2021/07/30 10:04:10;;;;;;;5.47;4.20;;;;;;;;;;5072843;28;20176;-74
2021/07/30 10:07:18;;;;;;;4.50;3.72;;;;;;;;;;5073010;28;20200;-73
2021/07/30 10:10:27;;;;;;;6.10;3.90;;;;;;;;;;5072584;28;20208;-74
2021/07/30 10:13:39;;;;;;;5.93;4.20;;;;;;;;;;5114152;22;20234;-87
2021/07/30 10:16:57;;;;;;;4.70;4.30;;;;;;;;;;5085040;28;20175;-87
2021/07/30 10:20:04;;;;;;;4.25;3.85;;;;;;;;;;5073503;28;20180;-86
2021/07/30 10:23:12;;;;;;;4.38;3.65;;;;;;;;;;5072980;28;20219;-87
2021/07/30 10:26:17;;;;;;;4.90;3.97;;;;;;;;;;5073610;28;20179;-87
2021/07/30 10:29:22;;;;;;;4.47;4.07;;;;;;;;;;5073161;28;20546;-86
2021/07/30 10:32:56;;;;;;;5.32;3.90;;;;;;;;;;5061808;28;20218;-87
2021/07/30 10:36:02;;;;;;;4.25;3.88;;;;;;;;;;5061676;28;20183;-87
2021/07/30 10:39:08;;;;;;;5.00;4.28;;;;;;;;;;5072861;28;20176;-87
2021/07/30 10:42:13;;;;;;;4.28;3.88;;;;;;;;;;5061496;28;20218;-87
2021/07/30 10:45:18;;;;;;;6.25;4.03;;;;;;;;;;5061263;28;20191;-86
2021/07/30 10:48:22;;;;;;;5.88;4.40;;;;;;;;;;5061854;28;20618;-87
2021/07/30 10:51:28;;;;;;;4.55;4.15;;;;;;;;;;5061235;28;20176;-87
2021/07/30 10:54:47;;;;;;;6.10;4.05;;;;;;;;;;5061139;28;20175;-87
2021/07/30 10:57:56;;;;;;;5.30;4.03;;;;;;;;;;5061770;28;20175;-87
2021/07/30 11:01:00;;;;;;;4.57;4.18;;;;;;;;;;5072809;28;20175;-87
2021/07/30 11:04:08;;;;;;;6.70;4.20;;;;;;;;;;5084146;28;20199;-87
2021/07/30 11:07:31;;;;;;;6.55;4.40;;;;;;;;;;5083924;28;20179;-87
2021/07/30 11:10:36;;;;;;;4.93;4.40;;;;;;;;;;5083807;28;20212;-87
2021/07/30 11:13:40;;;;;;;4.93;4.43;;;;;;;;;;5060713;28;20218;-87
2021/07/30 11:16:46;;;;;;;5.57;4.22;;;;;;;;;;5060887;28;20183;-87
2021/07/30 11:19:50;;;;;;;4.95;4.30;;;;;;;;;;5072779;28;20614;-87
2021/07/30 11:23:02;;;;;;;6.20;4.18;;;;;;;;;;5072096;28;20215;-87
2021/07/30 11:26:06;;;;;;;5.78;4.47;;;;;;;;;;5071559;28;20176;-87
2021/07/30 11:29:13;;;;;;;9.68;4.78;;;;;;;;;;5072199;28;20206;-87
2021/07/30 11:32:19;;;;;;;5.97;4.28;;;;;;;;;;5072659;28;20222;-87
2021/07/30 11:35:27;;;;;;;4.65;4.25;;;;;;;;;;5072142;28;20187;-87
2021/07/30 11:38:54;;;;;;;5.65;4.03;;;;;;;;;;5084205;28;20183;-87
2021/07/30 11:41:58;;;;;;;4.82;4.20;;;;;;;;;;5072154;28;20701;-86
2021/07/30 11:45:04;;;;;;;5.43;4.68;;;;;;;;;;5083127;28;20184;-87
2021/07/30 11:48:11;;;;;;;5.60;5.10;;;;;;;;;;5060316;28;20198;-87
2021/07/30 11:51:16;;;;;;;8.63;4.35;;;;;;;;;;5060377;28;20223;-87
2021/07/30 11:54:24;;;;;;;5.85;4.72;;;;;;;;;;5071496;28;20194;-87
2021/07/30 11:57:29;;;;;;;5.22;4.72;;;;;;;;;;5072032;28;20179;-87
2021/07/30 12:00:33;;;;;;;6.53;4.60;;;;;;;;;;5071886;28;20179;-87
2021/07/30 12:03:37;;;;;;;5.75;4.82;;;;;;;;;;5071628;28;20218;-86
2021/07/30 12:06:48;;;;;;;6.80;4.88;;;;;;;;;;5071242;28;20199;-86
2021/07/30 12:09:58;;;;;;;6.90;4.63;;;;;;;;;;5059631;28;20211;-86
2021/07/30 12:13:04;;;;;;;5.60;4.90;;;;;;;;;;5082820;28;20222;-87
2021/07/30 12:16:08;;;;;;;7.28;5.07;;;;;;;;;;5059499;28;20661;-86
2021/07/30 12:19:12;;;;;;;6.80;4.80;;;;;;;;;;5071099;28;20187;-86
2021/07/30 12:22:16;;;;;;;11.98;5.93;;;;;;;;;;5059626;28;20218;-87
2021/07/30 12:25:45;;;;;;;5.55;5.05;;;;;;;;;;5060070;28;20179;-87
2021/07/30 12:28:49;;;;;;;6.55;4.75;;;;;;;;;;5059474;28;20178;-87
2021/07/30 12:32:17;;;;;;;5.53;4.68;;;;;;;;;;5071391;28;20215;-88
2021/07/30 12:35:33;;;;;;;6.43;4.68;;;;;;;;;;5082362;28;20183;-87
2021/07/30 12:39:02;;;;;;;6.47;5.22;;;;;;;;;;5070473;28;20823;-87
2021/07/30 12:42:35;;;;;;;6.90;4.70;;;;;;;;;;5059169;28;20218;-87
2021/07/30 12:45:40;;;;;;;5.20;4.72;;;;;;;;;;5082074;28;20172;-87
2021/07/30 12:48:49;;;;;;;5.30;4.47;;;;;;;;;;5059705;28;20187;-87
2021/07/30 12:51:58;;;;;;;7.28;4.90;;;;;;;;;;5059085;28;20222;-86
2021/07/30 12:55:06;;;;;;;6.57;4.70;;;;;;;;;;5058952;28;20531;-87
2021/07/30 12:58:20;;;;;;;5.82;5.28;;;;;;;;;;5070491;28;20650;-87
2021/07/30 13:01:24;;;;;;;5.10;4.50;;;;;;;;;;5070393;28;20626;-87
2021/07/30 13:04:28;;;;;;;6.30;4.57;;;;;;;;;;5058958;28;20190;-87
2021/07/30 13:07:32;;;;;;;5.47;4.80;;;;;;;;;;5058755;28;20183;-87
2021/07/30 13:10:37;;;;;;;9.27;5.05;;;;;;;;;;5070367;28;20207;-87
2021/07/30 13:13:41;;;;;;;5.40;4.90;;;;;;;;;;5069633;28;20230;-87
2021/07/30 13:16:45;;;;;;;5.95;5.30;;;;;;;;;;5070088;28;20179;-87
2021/07/30 13:19:49;;;;;;;8.35;5.05;;;;;;;;;;5081472;28;20191;-87
2021/07/30 13:22:53;;;;;;;5.80;5.25;;;;;;;;;;5081834;28;20705;-87
2021/07/30 13:25:58;;;;;;;5.63;4.95;;;;;;;;;;5058599;28;20179;-87
2021/07/30 13:29:02;;;;;;;6.57;5.15;;;;;;;;;;5069722;28;20183;-87
2021/07/30 13:32:06;;;;;;;8.70;5.22;;;;;;;;;;5058799;28;20558;-87
2021/07/30 13:35:10;;;;;;;5.57;4.95;;;;;;;;;;5058624;28;20175;-87
2021/07/30 13:38:14;;;;;;;5.40;4.90;;;;;;;;;;5058517;28;20536;-87
2021/07/30 13:41:19;;;;;;;5.40;4.95;;;;;;;;;;5058272;28;20187;-87
2021/07/30 13:44:23;;;;;;;8.23;4.93;;;;;;;;;;5069749;28;20183;-87
2021/07/30 13:47:27;;;;;;;5.95;4.78;;;;;;;;;;5058190;28;20519;-87
2021/07/30 13:50:32;;;;;;;5.55;4.95;;;;;;;;;;5083422;28;20207;-87
2021/07/30 13:53:36;;;;;;;6.53;5.03;;;;;;;;;;5062270;28;20206;-87
2021/07/30 13:56:40;;;;;;;5.40;4.90;;;;;;;;;;5062501;28;20179;-87
2021/07/30 13:59:44;;;;;;;5.65;4.78;;;;;;;;;;5073711;28;20175;-87
2021/07/30 14:02:48;;;;;;;10.77;5.03;;;;;;;;;;5073663;28;20704;-87
2021/07/30 14:05:55;;;;;;;5.20;4.70;;;;;;;;;;5073830;28;20179;-87
2021/07/30 14:08:59;;;;;;;8.88;5.47;;;;;;;;;;5062257;28;20198;-87
2021/07/30 14:12:05;;;;;;;5.28;4.72;;;;;;;;;;5073607;28;20215;-87
2021/07/30 14:15:13;;;;;;;7.18;5.20;;;;;;;;;;5073284;28;20203;-87
2021/07/30 14:18:17;;;;;;;7.78;5.60;;;;;;;;;;5085054;28;20203;-87
2021/07/30 14:21:22;;;;;;;5.88;5.28;;;;;;;;;;5074278;28;20191;-87
2021/07/30 14:24:26;;;;;;;5.35;4.85;;;;;;;;;;5063980;28;20199;-87
2021/07/30 14:27:30;;;;;;;6.00;5.00;;;;;;;;;;5063760;28;20183;-87
2021/07/30 14:30:34;;;;;;;5.65;4.28;;;;;;;;;;5063433;28;20207;-87
2021/07/30 14:33:38;;;;;;;6.25;5.03;;;;;;;;;;5074600;28;20558;-87
2021/07/30 14:36:43;;;;;;;5.75;5.25;;;;;;;;;;5062981;28;20641;-87
2021/07/30 14:39:46;;;;;;;6.25;5.13;;;;;;;;;;5063231;28;20183;-86
2021/07/30 14:42:54;;;;;;;6.03;5.30;;;;;;;;;;5062827;28;20218;-87
2021/07/30 14:46:00;;;;;;;5.75;5.07;;;;;;;;;;5074418;28;20634;-87
2021/07/30 14:49:05;;;;;;;6.32;5.10;;;;;;;;;;5075094;28;20514;-87
2021/07/30 14:52:10;;;;;;;5.35;4.90;;;;;;;;;;5074896;28;20230;-87
2021/07/30 14:55:14;;;;;;;6.22;4.85;;;;;;;;;;5072745;28;20175;-87
2021/07/30 14:58:18;;;;;;;6.15;5.30;;;;;;;;;;5084281;28;20179;-86
2021/07/30 15:01:22;;;;;;;5.65;5.10;;;;;;;;;;5061289;28;20183;-86
2021/07/30 15:04:26;;;;;;;5.90;5.30;;;;;;;;;;5072489;28;20180;-87
2021/07/30 15:07:33;;;;;;;5.35;4.85;;;;;;;;;;5072450;28;20183;-87
2021/07/30 15:10:44;;;;;;;6.20;5.65;;;;;;;;;;5061411;28;20203;-87
2021/07/30 15:13:48;;;;;;;6.85;5.15;;;;;;;;;;5072057;28;20227;-87
2021/07/30 15:16:52;;;;;;;7.82;5.38;;;;;;;;;;5073147;28;20182;-87
2021/07/30 15:19:56;;;;;;;6.63;5.80;;;;;;;;;;5061144;28;20175;-87
2021/07/30 15:23:00;;;;;;;5.40;4.90;;;;;;;;;;5072349;28;20686;-87
2021/07/30 15:26:05;;;;;;;6.18;5.30;;;;;;;;;;5061152;28;20614;-87
2021/07/30 15:29:09;;;;;;;9.00;5.25;;;;;;;;;;5072228;28;20176;-87
2021/07/30 15:32:13;;;;;;;6.20;5.60;;;;;;;;;;5060316;28;20223;-86
2021/07/30 15:35:17;;;;;;;5.88;5.00;;;;;;;;;;5072397;28;20179;-87
2021/07/30 15:38:21;;;;;;;7.38;5.05;;;;;;;;;;5071680;28;20203;-87
2021/07/30 15:41:29;;;;;;;5.55;5.05;;;;;;;;;;5071856;28;20195;-87
2021/07/30 15:44:33;;;;;;;5.68;4.72;;;;;;;;;;5060099;28;20179;-87
2021/07/30 15:47:37;;;;;;;6.22;5.15;;;;;;;;;;5071902;28;20179;-87
2021/07/30 15:50:41;;;;;;;5.88;5.28;;;;;;;;;;5071566;28;20214;-87
2021/07/30 15:53:49;;;;;;;5.80;5.30;;;;;;;;;;5059992;28;20693;-87
2021/07/30 15:56:53;;;;;;;14.05;5.63;;;;;;;;;;5071767;28;20187;-87
2021/07/30 15:59:57;;;;;;;9.05;6.00;;;;;;;;;;5071552;28;20171;-87
2021/07/30 16:03:01;;;;;;;6.20;5.15;;;;;;;;;;5059730;28;20214;-87
2021/07/30 16:06:05;;;;;;;6.30;5.55;;;;;;;;;;5059686;28;20203;-87
2021/07/30 16:09:09;;;;;;;6.00;5.20;;;;;;;;;;5071422;28;20183;-87
2021/07/30 16:12:15;;;;;;;5.97;5.30;;;;;;;;;;5070033;28;20231;-87
2021/07/30 16:15:21;;;;;;;10.20;6.05;;;;;;;;;;5069352;22;20231;-83
2021/07/30 16:18:25;;;;;;;6.93;5.25;;;;;;;;;;5042693;28;20180;-83
2021/07/30 16:21:28;;;;;;;6.45;5.85;;;;;;;;;;5042430;28;20176;-84
2021/07/30 16:24:33;;;;;;;7.63;5.50;;;;;;;;;;5042788;28;20220;-83
2021/07/30 16:27:37;;;;;;;14.52;5.28;;;;;;;;;;5031597;28;20188;-83
2021/07/30 16:30:41;;;;;;;7.68;5.63;;;;;;;;;;5054899;28;20204;-83
2021/07/30 16:33:45;;;;;;;5.75;5.15;;;;;;;;;;5020199;28;20222;-83
2021/07/30 16:36:49;;;;;;;6.63;5.35;;;;;;;;;;5031115;28;20178;-83
2021/07/30 16:39:53;;;;;;;5.47;4.75;;;;;;;;;;5031211;28;20539;-83
2021/07/30 16:42:57;;;;;;;7.57;5.45;;;;;;;;;;5020113;28;20187;-83
2021/07/30 16:46:01;;;;;;;10.95;5.60;;;;;;;;;;5020006;28;20182;-83
2021/07/30 16:49:06;;;;;;;11.02;6.05;;;;;;;;;;5020547;28;20182;-83
2021/07/30 16:52:10;;;;;;;14.15;6.03;;;;;;;;;;5031483;28;20662;-83
2021/07/30 16:55:15;;;;;;;8.65;5.13;;;;;;;;;;5042988;28;20222;-83
2021/07/30 16:58:19;;;;;;;9.27;5.63;;;;;;;;;;5042699;28;20179;-83
2021/07/30 17:01:23;;;;;;;6.30;5.28;;;;;;;;;;5032035;28;20177;-83
2021/07/30 17:04:26;;;;;;;9.15;5.60;;;;;;;;;;5031845;28;20227;-83
2021/07/30 17:07:31;;;;;;;6.18;5.35;;;;;;;;;;5031794;28;20201;-83
2021/07/30 17:10:36;;;;;;;8.38;5.18;;;;;;;;;;5044940;28;20183;-83
2021/07/30 17:13:41;;;;;;;18.60;5.85;;;;;;;;;;5057261;28;20188;-83
2021/07/30 17:16:49;;;;;;;11.57;5.38;;;;;;;;;;5022946;28;20183;-83
2021/07/30 17:19:53;;;;;;;8.48;5.25;;;;;;;;;;5045173;28;20186;-83
2021/07/30 17:22:57;;;;;;;5.82;5.13;;;;;;;;;;5032718;28;20174;-83
2021/07/30 17:26:01;;;;;;;9.88;5.05;;;;;;;;;;5021259;28;20179;-83
2021/07/30 17:29:05;;;;;;;7.18;5.28;;;;;;;;;;5032410;28;20201;-83
2021/07/30 17:32:09;;;;;;;17.48;6.10;;;;;;;;;;5032326;28;20221;-83
2021/07/30 17:35:13;;;;;;;14.82;5.78;;;;;;;;;;5020229;28;20213;-83
2021/07/30 17:38:17;;;;;;;11.35;5.88;;;;;;;;;;5032191;28;20182;-83
2021/07/30 17:41:25;;;;;;;8.35;6.25;;;;;;;;;;5055088;28;20176;-83
2021/07/30 17:44:29;;;;;;;7.28;5.40;;;;;;;;;;5055919;28;20213;-83
2021/07/30 17:47:34;;;;;;;5.93;5.32;;;;;;;;;;5033735;28;20199;-83
2021/07/30 17:50:38;;;;;;;10.32;5.55;;;;;;;;;;5021120;28;20185;-83
2021/07/30 17:53:42;;;;;;;40.03;8.05;;;;;;;;;;5021574;28;20178;-83
2021/07/30 17:56:46;;;;;;;9.37;6.40;;;;;;;;;;5031739;28;20191;-83
2021/07/30 17:59:50;;;;;;;11.80;6.03;;;;;;;;;;5019971;28;20203;-83
2021/07/30 18:02:54;;;;;;;8.23;5.80;;;;;;;;;;5019980;28;20184;-83
2021/07/30 18:05:59;;;;;;;8.20;6.37;;;;;;;;;;5020515;28;20518;-83
2021/07/30 18:09:03;;;;;;;10.07;5.73;;;;;;;;;;5020305;28;20184;-83
2021/07/30 18:12:07;;;;;;;12.53;6.17;;;;;;;;;;5031919;28;20212;-82
2021/07/30 18:15:12;;;;;;;10.17;6.57;;;;;;;;;;5031954;28;20219;-82
2021/07/30 18:18:16;;;;;;;14.03;6.50;;;;;;;;;;5032350;28;20187;-83
2021/07/30 18:21:20;;;;;;;13.10;7.03;;;;;;;;;;5043577;28;20191;-82
2021/07/30 18:24:24;;;;;;;7.27;4.43;;;;;;;;;;5020577;28;20216;-82
2021/07/30 18:27:29;;;;;;;16.17;3.57;;;;;;;;;;5032699;28;20655;-82
2021/07/30 18:30:33;;;;;;;8.60;4.60;;;;;;;;;;5021621;28;20710;-83